Flight Track Log - Related Links

Times and Time Zones

All times are in EDT time to prevent confusion due to time zone crossing. See the EJA324 flight status page for this flight to view local times or setup timezone preferences in your user account.

Time Position Orientation Groundspeed Altitude Reporting Facility
EDT Latitude Longitude Course Direction KTS MPH feet Rate Location/Type
Sun 02:18:04 PM 32.1889 -81.2111 53° Northeast 257 296 4,200  Level Jacksonville Center
Sun 02:19:04 PM 32.2256 -81.1489 55° Northeast 305 351 8,700 3,700 Climbing Jacksonville Center
Sun 02:20:04 PM 32.2828 -81.0544 54° Northeast 321 369 11,600 3,100 Climbing Jacksonville Center
Sun 02:21:04 PM 32.3397 -80.9647 53° Northeast 359 413 14,900 3,300 Climbing Jacksonville Center
Sun 02:22:04 PM 32.4217 -80.8622 47° Northeast 379 436 18,200 2,550 Climbing Jacksonville Center
Sun 02:23:00 PM 32.5932 -80.4793 53° Northeast  Level FlightAware Approximate
Sun 02:23:04 PM 32.4997 -80.7767 43° Northeast 389 448 20,000  Level Jacksonville Center
Sun 02:24:04 PM 32.5919 -80.6783 42° Northeast 419 482 22,300 2,200 Climbing Jacksonville Center
Sun 02:25:04 PM 32.6861 -80.5775 42° Northeast 437 503 24,400 2,200 Climbing Jacksonville Center
Sun 02:26:04 PM 32.7842 -80.4711 42° Northeast 455 524 26,700 1,950 Climbing Jacksonville Center
Sun 02:27:04 PM 32.8844 -80.3619 42° Northeast 466 536 28,300 1,600 Climbing Jacksonville Center
Sun 02:28:04 PM 32.9989 -80.2400 42° Northeast 487 560 29,900 1,750 Climbing Jacksonville Center
Sun 02:29:04 PM 33.1131 -80.1175 42° Northeast 514 592 31,800 1,900 Climbing Jacksonville Center
Sun 02:30:04 PM 33.2128 -80.0075 43° Northeast 509 586 33,700 1,950 Climbing Jacksonville Center
Sun 02:31:04 PM 33.3167 -79.8925 43° Northeast 509 586 35,700 2,000 Climbing Jacksonville Center
Sun 02:32:04 PM 33.4161 -79.7819 43° Northeast 502 578 37,700 1,600 Climbing Jacksonville Center
Sun 02:33:04 PM 33.5158 -79.6739 42° Northeast 492 566 38,900 1,100 Climbing Jacksonville Center
Sun 02:34:04 PM 33.6150 -79.5631 43° Northeast 487 560 39,900 950 Climbing Jacksonville Center
Sun 02:35:04 PM 33.7144 -79.4519 43° Northeast 487 560 40,800 550 Climbing Jacksonville Center
Sun 02:36:04 PM 33.8117 -79.3458 42° Northeast 472 543 41,000 100 Climbing Jacksonville Center
Sun 02:37:04 PM 33.9208 -79.2261 42° Northeast 487 560 41,000  Level Jacksonville Center
Sun 02:38:04 PM 34.0300 -79.1039 43° Northeast 507 583 41,000  Level Jacksonville Center
Sun 02:40:05 PM 34.2483 -78.8581 43° Northeast 525 604 41,000  Level Washington Center
Sun 02:41:06 PM 34.3581 -78.7342 43° Northeast 530 610 41,000  Level Washington Center
Sun 02:42:04 PM 34.4656 -78.6122 43° Northeast 530 610 41,000  Level Washington Center
Sun 02:43:04 PM 34.5728 -78.4875 44° Northeast 530 610 41,000  Level Washington Center
Sun 02:44:05 PM 34.6800 -78.3703 42° Northeast 530 610 41,000  Level Washington Center
Sun 02:45:05 PM 34.7742 -78.2622 43° Northeast 525 604 41,000  Level Washington Center
Sun 02:46:05 PM 34.8794 -78.1314 46° Northeast 518 596 41,000  Level Washington Center
Sun 02:47:06 PM 34.9819 -78.0103 44° Northeast 513 590 41,000  Level Washington Center
Sun 02:48:04 PM 35.0886 -77.8892 43° Northeast 513 590 41,000  Level Washington Center
Sun 02:49:05 PM 35.1911 -77.7675 44° Northeast 513 590 41,000  Level Washington Center
Sun 02:50:05 PM 35.2933 -77.6483 44° Northeast 513 590 41,000  Level Washington Center
Sun 02:51:06 PM 35.4017 -77.5311 41° Northeast 513 590 41,000  Level Washington Center
Sun 02:52:03 PM 35.5181 -77.4294 35° Northeast 513 590 41,000  Level Washington Center
Sun 02:53:06 PM 35.6322 -77.3297 35° Northeast 508 585 41,000  Level Washington Center
Sun 02:54:06 PM 35.7464 -77.2300 35° Northeast 508 585 41,000  Level Washington Center
Sun 02:55:03 PM 35.8625 -77.1272 36° Northeast 502 578 41,000  Level Washington Center
Sun 02:56:04 PM 35.9764 -77.0267 36° Northeast 502 578 41,000  Level Washington Center
Sun 02:57:04 PM 36.0903 -76.9261 35° Northeast 502 578 41,000  Level Washington Center
Sun 02:58:05 PM 36.2019 -76.8225 37° Northeast 502 578 41,000  Level Washington Center
Sun 02:59:05 PM 36.3197 -76.7186 35° Northeast 502 578 41,000  Level Washington Center
Sun 03:00:05 PM 36.4356 -76.6144 36° Northeast 502 578 41,000  Level Washington Center
Sun 03:01:04 PM 36.5511 -76.5125 35° Northeast 502 578 41,000  Level Washington Center
Sun 03:02:05 PM 36.6664 -76.4075 36° Northeast 507 583 41,000  Level Washington Center
Sun 03:03:06 PM 36.7925 -76.2869 37° Northeast 507 583 41,000  Level Washington Center
Sun 03:04:04 PM 36.9119 -76.1894 33° Northeast 512 589 41,000  Level Washington Center
Sun 03:05:04 PM 37.0478 -76.1228 21° North 512 589 41,000  Level Washington Center
Sun 03:06:05 PM 37.1775 -76.0533 23° Northeast 502 578 41,000  Level Washington Center
Sun 03:07:03 PM 37.3069 -75.9836 23° Northeast 497 572 41,000  Level Washington Center
Sun 03:08:04 PM 37.4386 -75.9136 23° Northeast 502 578 41,000  Level Washington Center
Sun 03:09:05 PM 37.5681 -75.8381 25° Northeast 502 578 41,000  Level Washington Center
Sun 03:10:06 PM 37.6933 -75.7467 30° Northeast 502 578 41,000  Level Washington Center
Sun 03:11:04 PM 37.8164 -75.6522 31° Northeast 513 590 41,000  Level Washington Center
Sun 03:12:05 PM 37.9394 -75.5575 31° Northeast 513 590 41,000 -99 Level Washington Center
Sun 03:13:05 PM 38.0647 -75.4653 30° Northeast 513 590 40,800 -545 Descending Washington Center
Sun 03:14:06 PM 38.1981 -75.3831 26° Northeast 513 590 39,900 -958 Descending Washington Center
Sun 03:15:04 PM 38.3269 -75.3006 27° Northeast 513 590 38,900 -1,008 Descending Washington Center
Sun 03:16:05 PM 38.4539 -75.2153 28° Northeast 513 590 37,900 -992 Descending Washington Center
Sun 03:17:05 PM 38.5808 -75.1294 28° Northeast 513 590 36,900 -1,017 Descending Washington Center
Sun 03:18:03 PM 38.7097 -75.0517 25° Northeast 508 585 35,900 -1,059 Descending Washington Center
Sun 03:19:04 PM 38.8386 -74.9706 26° Northeast 508 585 34,800 -1,770 Descending Washington Center
Sun 03:20:05 PM 38.9633 -74.8894 27° Northeast 508 585 32,300 -2,479 Descending Washington Center
Sun 03:21:05 PM 39.0919 -74.7972 29° Northeast 503 579 29,800 -2,505 Descending Washington Center
Sun 03:23:31 PM 39.3619 -74.5142 39° Northeast 516 594 23,700 -2,447 Descending New York Center
Sun 03:24:31 PM 39.4572 -74.4089 40° Northeast 498 573 21,400 -2,300 Descending New York Center
Sun 03:25:31 PM 39.5606 -74.2983 40° Northeast 488 562 19,100 -1,729 Descending New York Center
Sun 03:26:29 PM 39.6617 -74.1903 39° Northeast 474 545 18,000 -1,311 Descending New York Center
Sun 03:27:30 PM 39.7564 -74.0842 41° Northeast 458 527 16,500 -1,918 Descending New York Center
Sun 03:28:31 PM 39.8594 -73.9808 38° Northeast 429 494 14,100 -2,218 Descending New York Center
Sun 03:29:29 PM 39.9572 -73.9067 30° Northeast 406 467 12,100 -1,563 Descending New York Center
Sun 03:30:30 PM 40.0358 -73.8506 29° Northeast 374 430 11,000 -1,289 Descending New York Center
Sun 03:31:30 PM 40.1153 -73.7672 39° Northeast 337 388 9,500 -1,660 Descending New York Center
Sun 03:32:04 PM 40.1500 -73.7167 48° Northeast 325 374 8,400 -1,915 Descending New York TRACON
Sun 03:33:04 PM 40.2167 -73.6500 37° Northeast 307 353 6,500 -1,586 Descending New York TRACON
Sun 03:33:31 PM 40.2500 -73.6236 31° Northeast 307 353 6,100 -424 Descending New York Center
Sun 03:34:29 PM 40.3078 -73.5608 40° Northeast 297 342 5,900 -655 Descending New York Center
Sun 03:35:30 PM 40.3761 -73.4900 38° Northeast 297 342 4,800 -1,063 Descending New York Center
Sun 03:36:05 PM 40.4000 -73.4333 61° Northeast 291 335 4,200 -1,404 Descending New York TRACON
Sun 03:37:04 PM 40.4167 -73.3333 78° East 289 333 2,600 -1,100 Descending New York TRACON
Sun 03:38:05 PM 40.4667 -73.2667 45° Northeast 287 330 2,000 -298 Descending New York TRACON
Sun 03:39:05 PM 40.5333 -73.2500 11° North 267 307 2,000  Level New York TRACON
Sun 03:40:05 PM 40.6000 -73.2833 339° North 249 287 2,000  Level New York TRACON
Sun 03:41:05 PM 40.6500 -73.3167 333° Northwest 193 222 2,000 -250 Level New York TRACON
Sun 03:42:05 PM 40.6833 -73.3500 323° Northwest 113 130 1,500 -555 Descending New York TRACON
Sun 03:43:04 PM 40.7000 -73.3667 323° Northwest 104 120 900 -605 Descending New York TRACON
Sun 03:44:04 PM 40.7167 -73.4000 303° West 92 106 300 -600 Descending New York TRACON
Sun 03:46:00 PM 40.7288 -73.4134 323° Northwest  Level Estimated
Sun 03:53:00 PM 40.7288 -73.4134 323° Northwest  Level Estimated

Login

Don't have an account? Register now (free) for customized features, flight alerts, and more!